sensor_id;sensor_type;location;lat;lon;timestamp;temperature;humidity
30097;DHT22;16915;51.466;3.610;2023-03-20T00:00:35;5.80;99.90
30097;DHT22;16915;51.466;3.610;2023-03-20T00:03:02;5.80;99.90
30097;DHT22;16915;51.466;3.610;2023-03-20T00:05:29;5.80;99.90
30097;DHT22;16915;51.466;3.610;2023-03-20T00:07:55;5.80;99.90
30097;DHT22;16915;51.466;3.610;2023-03-20T00:10:26;5.80;99.90
30097;DHT22;16915;51.466;3.610;2023-03-20T00:12:53;5.90;99.90
30097;DHT22;16915;51.466;3.610;2023-03-20T00:15:23;5.90;99.90
30097;DHT22;16915;51.466;3.610;2023-03-20T00:17:49;5.80;99.90
30097;DHT22;16915;51.466;3.610;2023-03-20T00:20:15;5.90;99.90
30097;DHT22;16915;51.466;3.610;2023-03-20T00:22:41;5.80;99.90
30097;DHT22;16915;51.466;3.610;2023-03-20T00:25:15;5.90;99.90
30097;DHT22;16915;51.466;3.610;2023-03-20T00:27:42;5.90;99.90
30097;DHT22;16915;51.466;3.610;2023-03-20T00:30:28;5.90;99.90
30097;DHT22;16915;51.466;3.610;2023-03-20T00:32:56;5.90;99.90
30097;DHT22;16915;51.466;3.610;2023-03-20T00:35:29;6.00;99.90
30097;DHT22;16915;51.466;3.610;2023-03-20T00:37:56;6.00;99.90
30097;DHT22;16915;51.466;3.610;2023-03-20T00:40:29;6.00;99.90
30097;DHT22;16915;51.466;3.610;2023-03-20T00:43:01;6.00;99.90
30097;DHT22;16915;51.466;3.610;2023-03-20T00:45:28;6.00;99.90
30097;DHT22;16915;51.466;3.610;2023-03-20T00:47:55;6.00;99.90
30097;DHT22;16915;51.466;3.610;2023-03-20T00:50:29;6.00;99.90
30097;DHT22;16915;51.466;3.610;2023-03-20T00:52:57;6.00;99.90
30097;DHT22;16915;51.466;3.610;2023-03-20T00:55:25;6.00;99.90
30097;DHT22;16915;51.466;3.610;2023-03-20T00:57:54;6.10;99.90
30097;DHT22;16915;51.466;3.610;2023-03-20T01:00:25;6.10;99.90
30097;DHT22;16915;51.466;3.610;2023-03-20T01:02:52;6.10;99.90
30097;DHT22;16915;51.466;3.610;2023-03-20T01:05:19;6.10;99.90
30097;DHT22;16915;51.466;3.610;2023-03-20T01:07:44;6.10;99.90
30097;DHT22;16915;51.466;3.610;2023-03-20T01:10:12;6.10;99.90
30097;DHT22;16915;51.466;3.610;2023-03-20T01:12:39;6.10;99.90
30097;DHT22;16915;51.466;3.610;2023-03-20T01:15:16;6.00;99.90
30097;DHT22;16915;51.466;3.610;2023-03-20T01:17:41;6.10;99.90
30097;DHT22;16915;51.466;3.610;2023-03-20T01:20:15;6.10;99.90
30097;DHT22;16915;51.466;3.610;2023-03-20T01:22:41;6.00;99.90
30097;DHT22;16915;51.466;3.610;2023-03-20T01:25:07;6.00;99.90
30097;DHT22;16915;51.466;3.610;2023-03-20T01:27:33;6.00;99.90
30097;DHT22;16915;51.466;3.610;2023-03-20T01:29:58;5.90;99.90
30097;DHT22;16915;51.466;3.610;2023-03-20T01:32:24;5.90;99.90
30097;DHT22;16915;51.466;3.610;2023-03-20T01:34:50;5.90;99.90
30097;DHT22;16915;51.466;3.610;2023-03-20T01:37:26;5.90;99.90
30097;DHT22;16915;51.466;3.610;2023-03-20T01:39:52;5.90;99.90
30097;DHT22;16915;51.466;3.610;2023-03-20T01:42:18;5.90;99.90
30097;DHT22;16915;51.466;3.610;2023-03-20T01:44:44;5.90;99.90
30097;DHT22;16915;51.466;3.610;2023-03-20T01:47:15;5.80;99.90
30097;DHT22;16915;51.466;3.610;2023-03-20T01:52:45;5.90;99.90
30097;DHT22;16915;51.466;3.610;2023-03-20T01:55:12;5.90;99.90
30097;DHT22;16915;51.466;3.610;2023-03-20T01:57:38;5.90;99.90
30097;DHT22;16915;51.466;3.610;2023-03-20T02:00:08;5.90;99.90
30097;DHT22;16915;51.466;3.610;2023-03-20T02:02:36;5.90;99.90
30097;DHT22;16915;51.466;3.610;2023-03-20T02:05:05;5.90;99.90
30097;DHT22;16915;51.466;3.610;2023-03-20T02:07:33;5.90;99.90
30097;DHT22;16915;51.466;3.610;2023-03-20T02:10:01;5.90;99.90
30097;DHT22;16915;51.466;3.610;2023-03-20T02:12:28;6.00;99.90
30097;DHT22;16915;51.466;3.610;2023-03-20T02:14:54;5.90;99.90
30097;DHT22;16915;51.466;3.610;2023-03-20T02:17:20;6.00;99.90
30097;DHT22;16915;51.466;3.610;2023-03-20T02:22:37;6.00;99.90
30097;DHT22;16915;51.466;3.610;2023-03-20T02:34:24;5.90;99.90
30097;DHT22;16915;51.466;3.610;2023-03-20T02:40:01;5.90;99.90
30097;DHT22;16915;51.466;3.610;2023-03-20T02:42:54;6.00;99.90
30097;DHT22;16915;51.466;3.610;2023-03-20T02:56:58;6.00;99.90
30097;DHT22;16915;51.466;3.610;2023-03-20T03:02:06;6.00;99.90
30097;DHT22;16915;51.466;3.610;2023-03-20T03:04:39;6.00;99.90
30097;DHT22;16915;51.466;3.610;2023-03-20T03:07:08;6.00;99.90
30097;DHT22;16915;51.466;3.610;2023-03-20T03:09:39;6.00;99.90
30097;DHT22;16915;51.466;3.610;2023-03-20T03:12:11;6.00;99.90
30097;DHT22;16915;51.466;3.610;2023-03-20T03:14:41;6.00;99.90
30097;DHT22;16915;51.466;3.610;2023-03-20T03:17:09;6.00;99.90
30097;DHT22;16915;51.466;3.610;2023-03-20T03:19:37;6.00;99.90
30097;DHT22;16915;51.466;3.610;2023-03-20T03:22:04;6.00;99.90
30097;DHT22;16915;51.466;3.610;2023-03-20T03:24:36;6.00;99.90
30097;DHT22;16915;51.466;3.610;2023-03-20T03:27:06;6.10;99.90
30097;DHT22;16915;51.466;3.610;2023-03-20T03:29:36;6.10;99.90
30097;DHT22;16915;51.466;3.610;2023-03-20T03:32:05;6.10;99.90
30097;DHT22;16915;51.466;3.610;2023-03-20T03:34:32;6.10;99.90
30097;DHT22;16915;51.466;3.610;2023-03-20T03:37:14;6.10;99.90
30097;DHT22;16915;51.466;3.610;2023-03-20T03:39:56;6.10;99.90
30097;DHT22;16915;51.466;3.610;2023-03-20T03:42:36;6.10;99.90
30097;DHT22;16915;51.466;3.610;2023-03-20T03:45:09;6.10;99.90
30097;DHT22;16915;51.466;3.610;2023-03-20T03:47:42;6.10;99.90
30097;DHT22;16915;51.466;3.610;2023-03-20T03:50:14;6.10;99.90
30097;DHT22;16915;51.466;3.610;2023-03-20T03:52:42;6.10;99.90
30097;DHT22;16915;51.466;3.610;2023-03-20T03:55:21;6.10;99.90
30097;DHT22;16915;51.466;3.610;2023-03-20T03:58:09;6.10;99.90
30097;DHT22;16915;51.466;3.610;2023-03-20T04:00:36;6.10;99.90
30097;DHT22;16915;51.466;3.610;2023-03-20T04:03:06;6.10;99.90
30097;DHT22;16915;51.466;3.610;2023-03-20T04:05:35;6.10;99.90
30097;DHT22;16915;51.466;3.610;2023-03-20T04:08:03;6.10;99.90
30097;DHT22;16915;51.466;3.610;2023-03-20T04:10:28;6.10;99.90
30097;DHT22;16915;51.466;3.610;2023-03-20T04:12:54;6.10;99.90
30097;DHT22;16915;51.466;3.610;2023-03-20T04:15:20;6.10;99.90
30097;DHT22;16915;51.466;3.610;2023-03-20T04:17:46;6.10;99.90
30097;DHT22;16915;51.466;3.610;2023-03-20T04:20:12;6.10;99.90
30097;DHT22;16915;51.466;3.610;2023-03-20T04:22:38;6.10;99.90
30097;DHT22;16915;51.466;3.610;2023-03-20T04:25:05;6.20;99.90
30097;DHT22;16915;51.466;3.610;2023-03-20T04:27:32;6.10;99.90
30097;DHT22;16915;51.466;3.610;2023-03-20T04:29:57;6.20;99.90
30097;DHT22;16915;51.466;3.610;2023-03-20T04:32:23;6.10;99.90
30097;DHT22;16915;51.466;3.610;2023-03-20T04:34:48;6.20;99.90
30097;DHT22;16915;51.466;3.610;2023-03-20T04:37:14;6.10;99.90
30097;DHT22;16915;51.466;3.610;2023-03-20T04:39:40;6.20;99.90
30097;DHT22;16915;51.466;3.610;2023-03-20T04:42:07;6.20;99.90
30097;DHT22;16915;51.466;3.610;2023-03-20T04:44:33;6.20;99.90
30097;DHT22;16915;51.466;3.610;2023-03-20T04:46:59;6.20;99.90
30097;DHT22;16915;51.466;3.610;2023-03-20T04:49:25;6.20;99.90
30097;DHT22;16915;51.466;3.610;2023-03-20T04:51:51;6.20;99.90
30097;DHT22;16915;51.466;3.610;2023-03-20T04:54:17;6.30;99.90
30097;DHT22;16915;51.466;3.610;2023-03-20T04:56:42;6.30;99.90
30097;DHT22;16915;51.466;3.610;2023-03-20T04:59:08;6.30;99.90
30097;DHT22;16915;51.466;3.610;2023-03-20T05:01:34;6.30;99.90
30097;DHT22;16915;51.466;3.610;2023-03-20T05:03:59;6.30;99.90
30097;DHT22;16915;51.466;3.610;2023-03-20T05:06:29;6.30;99.90
30097;DHT22;16915;51.466;3.610;2023-03-20T05:08:56;6.30;99.90
30097;DHT22;16915;51.466;3.610;2023-03-20T05:11:26;6.40;99.90
30097;DHT22;16915;51.466;3.610;2023-03-20T05:13:52;6.40;99.90
30097;DHT22;16915;51.466;3.610;2023-03-20T05:16:18;6.30;99.90
30097;DHT22;16915;51.466;3.610;2023-03-20T05:18:44;6.40;99.90
30097;DHT22;16915;51.466;3.610;2023-03-20T05:21:10;6.40;99.90
30097;DHT22;16915;51.466;3.610;2023-03-20T05:23:35;6.40;99.90
30097;DHT22;16915;51.466;3.610;2023-03-20T05:26:01;6.40;99.90
30097;DHT22;16915;51.466;3.610;2023-03-20T05:28:27;6.40;99.90
30097;DHT22;16915;51.466;3.610;2023-03-20T05:30:52;6.50;99.90
30097;DHT22;16915;51.466;3.610;2023-03-20T05:33:18;6.50;99.90
30097;DHT22;16915;51.466;3.610;2023-03-20T05:35:44;6.50;99.90
30097;DHT22;16915;51.466;3.610;2023-03-20T05:38:10;6.50;99.90
30097;DHT22;16915;51.466;3.610;2023-03-20T05:40:35;6.50;99.90
30097;DHT22;16915;51.466;3.610;2023-03-20T05:43:01;6.50;99.90
30097;DHT22;16915;51.466;3.610;2023-03-20T05:45:27;6.50;99.90
30097;DHT22;16915;51.466;3.610;2023-03-20T05:47:52;6.50;99.90
30097;DHT22;16915;51.466;3.610;2023-03-20T05:50:18;6.50;99.90
30097;DHT22;16915;51.466;3.610;2023-03-20T05:52:47;6.60;99.90
30097;DHT22;16915;51.466;3.610;2023-03-20T05:55:13;6.60;99.90
30097;DHT22;16915;51.466;3.610;2023-03-20T05:57:39;6.60;99.90
30097;DHT22;16915;51.466;3.610;2023-03-20T06:00:06;6.60;99.90
30097;DHT22;16915;51.466;3.610;2023-03-20T06:02:32;6.60;99.90
30097;DHT22;16915;51.466;3.610;2023-03-20T06:04:58;6.60;99.90
30097;DHT22;16915;51.466;3.610;2023-03-20T06:07:24;6.60;99.90
30097;DHT22;16915;51.466;3.610;2023-03-20T06:09:49;6.60;99.90
30097;DHT22;16915;51.466;3.610;2023-03-20T06:12:16;6.60;99.90
30097;DHT22;16915;51.466;3.610;2023-03-20T06:14:42;6.60;99.90
30097;DHT22;16915;51.466;3.610;2023-03-20T06:17:07;6.60;99.90
30097;DHT22;16915;51.466;3.610;2023-03-20T06:19:33;6.70;99.90
30097;DHT22;16915;51.466;3.610;2023-03-20T06:21:58;6.70;99.90
30097;DHT22;16915;51.466;3.610;2023-03-20T06:24:24;6.70;99.90
30097;DHT22;16915;51.466;3.610;2023-03-20T06:26:50;6.70;99.90
30097;DHT22;16915;51.466;3.610;2023-03-20T06:29:16;6.70;99.90
30097;DHT22;16915;51.466;3.610;2023-03-20T06:31:41;6.70;99.90
30097;DHT22;16915;51.466;3.610;2023-03-20T06:34:07;6.80;99.90
30097;DHT22;16915;51.466;3.610;2023-03-20T06:36:33;6.80;99.90
30097;DHT22;16915;51.466;3.610;2023-03-20T06:38:58;6.80;99.90
30097;DHT22;16915;51.466;3.610;2023-03-20T06:41:24;6.80;99.90
30097;DHT22;16915;51.466;3.610;2023-03-20T06:43:50;6.80;99.90
30097;DHT22;16915;51.466;3.610;2023-03-20T06:46:15;6.90;99.90
30097;DHT22;16915;51.466;3.610;2023-03-20T06:48:41;6.80;99.90
30097;DHT22;16915;51.466;3.610;2023-03-20T06:51:07;6.90;99.90
30097;DHT22;16915;51.466;3.610;2023-03-20T06:53:32;6.90;99.90
30097;DHT22;16915;51.466;3.610;2023-03-20T06:55:58;6.90;99.90
30097;DHT22;16915;51.466;3.610;2023-03-20T06:58:24;6.90;99.90
30097;DHT22;16915;51.466;3.610;2023-03-20T07:00:50;6.90;99.90
30097;DHT22;16915;51.466;3.610;2023-03-20T07:03:16;6.90;99.90
30097;DHT22;16915;51.466;3.610;2023-03-20T07:05:42;6.90;99.90
30097;DHT22;16915;51.466;3.610;2023-03-20T07:08:07;6.90;99.90
30097;DHT22;16915;51.466;3.610;2023-03-20T07:10:34;6.90;99.90
30097;DHT22;16915;51.466;3.610;2023-03-20T07:12:59;6.90;99.90
30097;DHT22;16915;51.466;3.610;2023-03-20T07:15:25;6.90;99.90
30097;DHT22;16915;51.466;3.610;2023-03-20T07:17:51;6.90;99.90
30097;DHT22;16915;51.466;3.610;2023-03-20T07:20:18;6.90;99.90
30097;DHT22;16915;51.466;3.610;2023-03-20T07:22:43;7.00;99.90
30097;DHT22;16915;51.466;3.610;2023-03-20T07:25:09;7.00;99.90
30097;DHT22;16915;51.466;3.610;2023-03-20T07:27:35;7.00;99.90
30097;DHT22;16915;51.466;3.610;2023-03-20T07:30:03;7.00;99.90
30097;DHT22;16915;51.466;3.610;2023-03-20T07:32:28;7.00;99.90
30097;DHT22;16915;51.466;3.610;2023-03-20T07:34:54;7.00;99.90
30097;DHT22;16915;51.466;3.610;2023-03-20T07:37:20;7.00;99.90
30097;DHT22;16915;51.466;3.610;2023-03-20T07:39:45;7.00;99.90
30097;DHT22;16915;51.466;3.610;2023-03-20T07:42:11;7.00;99.90
30097;DHT22;16915;51.466;3.610;2023-03-20T07:44:38;7.00;99.90
30097;DHT22;16915;51.466;3.610;2023-03-20T07:47:04;7.00;99.90
30097;DHT22;16915;51.466;3.610;2023-03-20T07:49:30;7.00;99.90
30097;DHT22;16915;51.466;3.610;2023-03-20T07:51:56;7.00;99.90
30097;DHT22;16915;51.466;3.610;2023-03-20T07:54:22;7.00;99.90
30097;DHT22;16915;51.466;3.610;2023-03-20T07:56:48;7.00;99.90
30097;DHT22;16915;51.466;3.610;2023-03-20T07:59:15;7.00;99.90
30097;DHT22;16915;51.466;3.610;2023-03-20T08:01:41;7.00;99.90
30097;DHT22;16915;51.466;3.610;2023-03-20T08:04:06;7.00;99.90
30097;DHT22;16915;51.466;3.610;2023-03-20T08:06:32;7.10;99.90
30097;DHT22;16915;51.466;3.610;2023-03-20T08:08:58;7.10;99.90
30097;DHT22;16915;51.466;3.610;2023-03-20T08:11:23;7.10;99.90
30097;DHT22;16915;51.466;3.610;2023-03-20T08:13:49;7.20;99.90
30097;DHT22;16915;51.466;3.610;2023-03-20T08:16:14;7.20;99.90
30097;DHT22;16915;51.466;3.610;2023-03-20T08:18:40;7.30;99.90
30097;DHT22;16915;51.466;3.610;2023-03-20T08:21:07;7.40;99.90
30097;DHT22;16915;51.466;3.610;2023-03-20T08:23:33;7.50;99.90
30097;DHT22;16915;51.466;3.610;2023-03-20T08:25:58;7.60;99.90
30097;DHT22;16915;51.466;3.610;2023-03-20T08:28:24;7.60;99.90
30097;DHT22;16915;51.466;3.610;2023-03-20T08:30:50;7.70;99.90
30097;DHT22;16915;51.466;3.610;2023-03-20T08:33:16;7.80;99.90
30097;DHT22;16915;51.466;3.610;2023-03-20T08:35:42;7.90;99.90
30097;DHT22;16915;51.466;3.610;2023-03-20T08:38:11;8.00;99.90
30097;DHT22;16915;51.466;3.610;2023-03-20T08:40:40;8.20;99.90
30097;DHT22;16915;51.466;3.610;2023-03-20T08:43:06;8.20;99.90
30097;DHT22;16915;51.466;3.610;2023-03-20T08:45:32;8.20;99.90
30097;DHT22;16915;51.466;3.610;2023-03-20T08:47:57;8.30;99.90
30097;DHT22;16915;51.466;3.610;2023-03-20T08:50:23;8.40;99.90
30097;DHT22;16915;51.466;3.610;2023-03-20T08:52:48;8.40;99.90
30097;DHT22;16915;51.466;3.610;2023-03-20T08:55:14;8.40;99.90
30097;DHT22;16915;51.466;3.610;2023-03-20T08:57:41;8.40;99.90
30097;DHT22;16915;51.466;3.610;2023-03-20T09:00:08;8.50;99.90
30097;DHT22;16915;51.466;3.610;2023-03-20T09:02:36;8.50;99.90
30097;DHT22;16915;51.466;3.610;2023-03-20T09:05:02;8.60;99.90
30097;DHT22;16915;51.466;3.610;2023-03-20T09:07:27;8.60;99.90
30097;DHT22;16915;51.466;3.610;2023-03-20T09:09:53;8.70;99.90
30097;DHT22;16915;51.466;3.610;2023-03-20T09:12:19;8.70;99.90
30097;DHT22;16915;51.466;3.610;2023-03-20T09:14:44;8.80;99.90
30097;DHT22;16915;51.466;3.610;2023-03-20T09:17:10;8.80;99.90
30097;DHT22;16915;51.466;3.610;2023-03-20T09:19:36;8.90;99.90
30097;DHT22;16915;51.466;3.610;2023-03-20T09:22:04;8.90;99.90
30097;DHT22;16915;51.466;3.610;2023-03-20T09:24:30;8.90;99.90
30097;DHT22;16915;51.466;3.610;2023-03-20T09:26:57;8.80;99.90
30097;DHT22;16915;51.466;3.610;2023-03-20T09:29:23;8.70;99.90
30097;DHT22;16915;51.466;3.610;2023-03-20T09:31:48;8.70;99.90
30097;DHT22;16915;51.466;3.610;2023-03-20T09:34:14;8.60;99.90
30097;DHT22;16915;51.466;3.610;2023-03-20T09:36:40;8.50;99.90
30097;DHT22;16915;51.466;3.610;2023-03-20T09:39:06;8.50;99.90
30097;DHT22;16915;51.466;3.610;2023-03-20T09:41:31;8.50;99.90
30097;DHT22;16915;51.466;3.610;2023-03-20T09:49:20;8.50;99.90
30097;DHT22;16915;51.466;3.610;2023-03-20T09:51:58;8.50;99.90
30097;DHT22;16915;51.466;3.610;2023-03-20T09:54:38;8.40;99.90
30097;DHT22;16915;51.466;3.610;2023-03-20T09:57:05;8.40;99.90
30097;DHT22;16915;51.466;3.610;2023-03-20T09:59:38;8.50;99.90
30097;DHT22;16915;51.466;3.610;2023-03-20T10:02:11;8.50;99.90
30097;DHT22;16915;51.466;3.610;2023-03-20T10:04:40;8.50;99.90
30097;DHT22;16915;51.466;3.610;2023-03-20T10:07:09;8.50;99.90
30097;DHT22;16915;51.466;3.610;2023-03-20T10:09:38;8.60;99.90
30097;DHT22;16915;51.466;3.610;2023-03-20T10:23:00;9.00;99.90
30097;DHT22;16915;51.466;3.610;2023-03-20T10:25:36;9.10;99.90
30097;DHT22;16915;51.466;3.610;2023-03-20T10:28:12;9.20;99.90
30097;DHT22;16915;51.466;3.610;2023-03-20T10:33:51;9.40;99.90
30097;DHT22;16915;51.466;3.610;2023-03-20T10:36:26;9.50;99.90
30097;DHT22;16915;51.466;3.610;2023-03-20T10:39:04;9.70;99.90
30097;DHT22;16915;51.466;3.610;2023-03-20T10:41:34;9.80;99.90
30097;DHT22;16915;51.466;3.610;2023-03-20T10:44:01;9.80;99.90
30097;DHT22;16915;51.466;3.610;2023-03-20T10:46:40;9.90;99.90
30097;DHT22;16915;51.466;3.610;2023-03-20T10:49:14;9.90;99.90
30097;DHT22;16915;51.466;3.610;2023-03-20T10:51:50;9.70;99.90
30097;DHT22;16915;51.466;3.610;2023-03-20T10:54:26;9.70;99.90
30097;DHT22;16915;51.466;3.610;2023-03-20T10:56:55;9.60;99.90
30097;DHT22;16915;51.466;3.610;2023-03-20T10:59:25;9.60;99.90
30097;DHT22;16915;51.466;3.610;2023-03-20T11:01:51;9.50;99.90
30097;DHT22;16915;51.466;3.610;2023-03-20T11:04:17;9.60;99.90
30097;DHT22;16915;51.466;3.610;2023-03-20T11:09:20;9.70;99.90
30097;DHT22;16915;51.466;3.610;2023-03-20T11:11:46;9.80;99.90
30097;DHT22;16915;51.466;3.610;2023-03-20T11:14:21;9.90;99.90
30097;DHT22;16915;51.466;3.610;2023-03-20T11:16:50;9.90;99.90
30097;DHT22;16915;51.466;3.610;2023-03-20T11:19:18;9.90;99.90
30097;DHT22;16915;51.466;3.610;2023-03-20T11:21:47;9.90;99.90
30097;DHT22;16915;51.466;3.610;2023-03-20T11:24:40;10.00;99.90
30097;DHT22;16915;51.466;3.610;2023-03-20T11:27:11;10.10;99.90
30097;DHT22;16915;51.466;3.610;2023-03-20T11:29:38;10.20;99.90
30097;DHT22;16915;51.466;3.610;2023-03-20T11:34:39;10.30;99.90
30097;DHT22;16915;51.466;3.610;2023-03-20T11:37:32;10.40;99.90
30097;DHT22;16915;51.466;3.610;2023-03-20T11:40:09;10.30;99.90
30097;DHT22;16915;51.466;3.610;2023-03-20T11:42:34;10.20;99.90
30097;DHT22;16915;51.466;3.610;2023-03-20T11:45:17;10.00;99.90
30097;DHT22;16915;51.466;3.610;2023-03-20T11:47:43;9.90;99.90
30097;DHT22;16915;51.466;3.610;2023-03-20T11:50:26;9.90;99.90
30097;DHT22;16915;51.466;3.610;2023-03-20T11:52:54;9.70;99.90
30097;DHT22;16915;51.466;3.610;2023-03-20T11:55:27;9.70;99.90
30097;DHT22;16915;51.466;3.610;2023-03-20T11:57:58;9.60;99.90
30097;DHT22;16915;51.466;3.610;2023-03-20T12:00:37;9.60;99.90
30097;DHT22;16915;51.466;3.610;2023-03-20T12:06:01;9.40;99.90
30097;DHT22;16915;51.466;3.610;2023-03-20T12:08:28;9.40;99.90
30097;DHT22;16915;51.466;3.610;2023-03-20T12:11:14;9.40;99.90
30097;DHT22;16915;51.466;3.610;2023-03-20T12:13:44;9.40;99.90
30097;DHT22;16915;51.466;3.610;2023-03-20T12:16:15;9.40;99.90
30097;DHT22;16915;51.466;3.610;2023-03-20T12:18:45;9.50;99.90
30097;DHT22;16915;51.466;3.610;2023-03-20T12:21:25;9.60;99.90
30097;DHT22;16915;51.466;3.610;2023-03-20T12:24:12;9.60;99.90
30097;DHT22;16915;51.466;3.610;2023-03-20T12:29:37;9.90;99.90
30097;DHT22;16915;51.466;3.610;2023-03-20T12:32:13;9.90;99.90
30097;DHT22;16915;51.466;3.610;2023-03-20T12:35:04;10.00;99.90
30097;DHT22;16915;51.466;3.610;2023-03-20T12:37:34;10.20;99.90
30097;DHT22;16915;51.466;3.610;2023-03-20T12:40:00;10.20;99.90
30097;DHT22;16915;51.466;3.610;2023-03-20T12:43:00;10.30;99.90
30097;DHT22;16915;51.466;3.610;2023-03-20T12:45:37;10.30;99.90
30097;DHT22;16915;51.466;3.610;2023-03-20T12:48:29;10.40;99.90
30097;DHT22;16915;51.466;3.610;2023-03-20T12:51:06;10.50;99.90
30097;DHT22;16915;51.466;3.610;2023-03-20T13:07:21;10.60;99.90
30097;DHT22;16915;51.466;3.610;2023-03-20T13:18:05;10.80;99.90
30097;DHT22;16915;51.466;3.610;2023-03-20T13:20:40;10.70;99.90
30097;DHT22;16915;51.466;3.610;2023-03-20T13:34:24;10.80;99.90
30097;DHT22;16915;51.466;3.610;2023-03-20T13:37:14;10.80;99.90
30097;DHT22;16915;51.466;3.610;2023-03-20T13:42:30;10.80;99.90
30097;DHT22;16915;51.466;3.610;2023-03-20T13:45:04;10.80;99.90
30097;DHT22;16915;51.466;3.610;2023-03-20T13:47:32;10.80;99.90
30097;DHT22;16915;51.466;3.610;2023-03-20T13:50:22;10.90;99.90
30097;DHT22;16915;51.466;3.610;2023-03-20T13:53:13;10.80;99.90
30097;DHT22;16915;51.466;3.610;2023-03-20T13:55:47;10.90;99.90
30097;DHT22;16915;51.466;3.610;2023-03-20T14:03:36;10.90;99.90
30097;DHT22;16915;51.466;3.610;2023-03-20T14:08:58;11.00;99.90
30097;DHT22;16915;51.466;3.610;2023-03-20T14:11:25;11.00;99.90
30097;DHT22;16915;51.466;3.610;2023-03-20T14:14:18;10.90;99.90
30097;DHT22;16915;51.466;3.610;2023-03-20T14:16:48;10.90;99.90
30097;DHT22;16915;51.466;3.610;2023-03-20T14:19:18;10.90;99.90
30097;DHT22;16915;51.466;3.610;2023-03-20T14:21:50;10.90;99.90
30097;DHT22;16915;51.466;3.610;2023-03-20T14:24:18;10.90;99.90
30097;DHT22;16915;51.466;3.610;2023-03-20T14:26:57;10.90;99.90
30097;DHT22;16915;51.466;3.610;2023-03-20T14:32:28;11.00;99.90
30097;DHT22;16915;51.466;3.610;2023-03-20T14:35:23;11.00;99.90
30097;DHT22;16915;51.466;3.610;2023-03-20T14:38:19;11.10;99.90
30097;DHT22;16915;51.466;3.610;2023-03-20T14:49:14;11.40;99.90
30097;DHT22;16915;51.466;3.610;2023-03-20T14:51:46;11.50;99.90
30097;DHT22;16915;51.466;3.610;2023-03-20T14:56:48;11.60;99.90
30097;DHT22;16915;51.466;3.610;2023-03-20T14:59:16;11.60;99.90
30097;DHT22;16915;51.466;3.610;2023-03-20T15:06:59;11.70;99.90
30097;DHT22;16915;51.466;3.610;2023-03-20T15:09:28;11.80;99.90
30097;DHT22;16915;51.466;3.610;2023-03-20T15:11:56;11.80;99.90
30097;DHT22;16915;51.466;3.610;2023-03-20T15:14:33;11.80;99.90
30097;DHT22;16915;51.466;3.610;2023-03-20T15:17:00;11.80;99.90
30097;DHT22;16915;51.466;3.610;2023-03-20T15:19:26;11.70;99.90
30097;DHT22;16915;51.466;3.610;2023-03-20T15:21:53;11.70;99.90
30097;DHT22;16915;51.466;3.610;2023-03-20T15:24:24;11.60;99.90
30097;DHT22;16915;51.466;3.610;2023-03-20T15:26:57;11.60;99.90
30097;DHT22;16915;51.466;3.610;2023-03-20T15:29:24;11.60;99.90
30097;DHT22;16915;51.466;3.610;2023-03-20T15:31:54;11.50;99.90
30097;DHT22;16915;51.466;3.610;2023-03-20T15:34:24;11.40;99.90
30097;DHT22;16915;51.466;3.610;2023-03-20T15:36:52;11.40;99.90
30097;DHT22;16915;51.466;3.610;2023-03-20T15:39:27;11.30;99.90
30097;DHT22;16915;51.466;3.610;2023-03-20T15:41:58;11.30;99.90
30097;DHT22;16915;51.466;3.610;2023-03-20T15:44:35;11.20;99.90
30097;DHT22;16915;51.466;3.610;2023-03-20T15:47:11;11.20;99.90
30097;DHT22;16915;51.466;3.610;2023-03-20T15:49:39;11.10;99.90
30097;DHT22;16915;51.466;3.610;2023-03-20T15:52:40;11.10;99.90
30097;DHT22;16915;51.466;3.610;2023-03-20T15:55:16;11.10;99.90
30097;DHT22;16915;51.466;3.610;2023-03-20T15:57:44;11.10;99.90
30097;DHT22;16915;51.466;3.610;2023-03-20T16:00:31;11.00;99.90
30097;DHT22;16915;51.466;3.610;2023-03-20T16:03:02;11.00;99.90
30097;DHT22;16915;51.466;3.610;2023-03-20T16:05:29;11.00;99.90
30097;DHT22;16915;51.466;3.610;2023-03-20T16:07:56;11.00;99.90
30097;DHT22;16915;51.466;3.610;2023-03-20T16:10:31;10.90;99.90
30097;DHT22;16915;51.466;3.610;2023-03-20T16:13:02;10.80;99.90
30097;DHT22;16915;51.466;3.610;2023-03-20T16:15:30;10.80;99.90
30097;DHT22;16915;51.466;3.610;2023-03-20T16:18:02;10.70;99.90
30097;DHT22;16915;51.466;3.610;2023-03-20T16:20:33;10.60;99.90
30097;DHT22;16915;51.466;3.610;2023-03-20T16:23:03;10.60;99.90
30097;DHT22;16915;51.466;3.610;2023-03-20T16:25:30;10.60;99.90
30097;DHT22;16915;51.466;3.610;2023-03-20T16:27:57;10.60;99.90
30097;DHT22;16915;51.466;3.610;2023-03-20T16:30:25;10.50;99.90
30097;DHT22;16915;51.466;3.610;2023-03-20T16:33:14;10.50;99.90
30097;DHT22;16915;51.466;3.610;2023-03-20T16:35:44;10.50;99.90
30097;DHT22;16915;51.466;3.610;2023-03-20T16:38:27;10.40;99.90
30097;DHT22;16915;51.466;3.610;2023-03-20T16:41:20;10.40;99.90
30097;DHT22;16915;51.466;3.610;2023-03-20T16:43:48;10.30;99.90
30097;DHT22;16915;51.466;3.610;2023-03-20T16:46:25;10.40;99.90
30097;DHT22;16915;51.466;3.610;2023-03-20T16:48:56;10.30;99.90
30097;DHT22;16915;51.466;3.610;2023-03-20T16:51:25;10.30;99.90
30097;DHT22;16915;51.466;3.610;2023-03-20T16:53:54;10.30;99.90
30097;DHT22;16915;51.466;3.610;2023-03-20T16:56:36;10.20;99.90
30097;DHT22;16915;51.466;3.610;2023-03-20T16:59:13;10.30;99.90
30097;DHT22;16915;51.466;3.610;2023-03-20T17:01:43;10.30;99.90
30097;DHT22;16915;51.466;3.610;2023-03-20T17:04:35;10.30;99.90
30097;DHT22;16915;51.466;3.610;2023-03-20T17:07:21;10.30;99.90
30097;DHT22;16915;51.466;3.610;2023-03-20T17:10:00;10.30;99.90
30097;DHT22;16915;51.466;3.610;2023-03-20T17:12:34;10.30;99.90
30097;DHT22;16915;51.466;3.610;2023-03-20T17:15:02;10.30;99.90
30097;DHT22;16915;51.466;3.610;2023-03-20T17:17:28;10.30;99.90
30097;DHT22;16915;51.466;3.610;2023-03-20T17:19:53;10.30;99.90
30097;DHT22;16915;51.466;3.610;2023-03-20T17:22:22;10.30;99.90
30097;DHT22;16915;51.466;3.610;2023-03-20T17:24:48;10.30;99.90
30097;DHT22;16915;51.466;3.610;2023-03-20T17:27:15;10.30;99.90
30097;DHT22;16915;51.466;3.610;2023-03-20T17:29:41;10.30;99.90
30097;DHT22;16915;51.466;3.610;2023-03-20T17:32:16;10.20;99.90
30097;DHT22;16915;51.466;3.610;2023-03-20T17:34:42;10.20;99.90
30097;DHT22;16915;51.466;3.610;2023-03-20T17:37:12;10.20;99.90
30097;DHT22;16915;51.466;3.610;2023-03-20T17:39:39;10.20;99.90
30097;DHT22;16915;51.466;3.610;2023-03-20T17:42:19;10.20;99.90
30097;DHT22;16915;51.466;3.610;2023-03-20T17:44:46;10.10;99.90
30097;DHT22;16915;51.466;3.610;2023-03-20T17:47:16;10.10;99.90
30097;DHT22;16915;51.466;3.610;2023-03-20T17:49:43;10.10;99.90
30097;DHT22;16915;51.466;3.610;2023-03-20T17:52:17;10.10;99.90
30097;DHT22;16915;51.466;3.610;2023-03-20T17:54:44;10.00;99.90
30097;DHT22;16915;51.466;3.610;2023-03-20T17:59:50;10.00;99.90
30097;DHT22;16915;51.466;3.610;2023-03-20T18:02:17;10.00;99.90
30097;DHT22;16915;51.466;3.610;2023-03-20T18:04:44;10.00;99.90
30097;DHT22;16915;51.466;3.610;2023-03-20T18:07:10;9.90;99.90